Time;durP1;ratioP1;P1;durP2;ratioP2;P2;SDS_P1;SDS_P2;PMS_P1;PMS_P2;Temp;Humidity;BMP_temperature;BMP_pressure;BME280_temperature;BME280_humidity;BME280_pressure;Samples;Min_cycle;Max_cycle;Signal;HPM_P1;HPM_P2
2023/10/04 00:00:16;;;;;;;15.70;7.10;;;;;;;17.84;43.71;101218.73;108136;1283;21998;-58
2023/10/04 00:02:44;;;;;;;18.90;6.80;;;;;;;17.80;43.72;101217.45;108057;1288;22024;-57
2023/10/04 00:05:14;;;;;;;13.70;6.50;;;;;;;17.77;43.98;101212.38;108135;1288;21985;-57
2023/10/04 00:07:41;;;;;;;18.40;6.70;;;;;;;17.73;44.00;101208.05;108153;1281;21985;-66
2023/10/04 00:10:07;;;;;;;17.00;6.90;;;;;;;17.70;44.00;101205.11;108157;1286;21988;-67
2023/10/04 00:12:33;;;;;;;15.80;6.80;;;;;;;17.69;44.03;101201.92;108104;1280;21990;-67
2023/10/04 00:14:59;;;;;;;17.70;6.70;;;;;;;17.68;44.16;101199.66;108084;1280;21991;-56
2023/10/04 00:17:24;;;;;;;17.70;6.90;;;;;;;17.64;44.19;101199.06;108090;1288;22029;-57
2023/10/04 00:19:50;;;;;;;17.10;6.70;;;;;;;17.61;44.18;101199.53;108089;1287;21998;-65
2023/10/04 00:22:18;;;;;;;15.80;7.00;;;;;;;17.60;44.38;101198.14;108108;1286;21989;-65
2023/10/04 00:24:44;;;;;;;14.70;6.60;;;;;;;17.58;44.50;101197.47;108134;1287;22028;-66
2023/10/04 00:27:10;;;;;;;18.00;7.10;;;;;;;17.59;44.59;101195.14;108122;1282;21983;-65
2023/10/04 00:29:36;;;;;;;15.20;6.10;;;;;;;17.61;44.92;101191.52;108139;1279;21988;-57
2023/10/04 00:32:04;;;;;;;15.30;6.30;;;;;;;17.64;44.89;101189.48;108156;1288;21987;-67
2023/10/04 00:34:30;;;;;;;17.10;7.40;;;;;;;17.68;45.14;101190.96;108133;1283;21996;-57
2023/10/04 00:36:56;;;;;;;14.00;6.80;;;;;;;17.69;44.95;101192.52;108082;1283;21993;-57
2023/10/04 00:39:22;;;;;;;14.30;6.20;;;;;;;17.68;44.77;101193.42;108082;1287;22005;-57
2023/10/04 00:41:50;;;;;;;16.90;6.90;;;;;;;17.70;44.80;101193.23;108129;1288;22053;-59
2023/10/04 00:44:16;;;;;;;14.50;6.50;;;;;;;17.71;44.79;101195.50;108116;1283;22099;-57
2023/10/04 00:46:45;;;;;;;15.80;6.10;;;;;;;17.70;44.76;101194.80;108078;1283;21989;-57
2023/10/04 00:49:12;;;;;;;13.70;6.70;;;;;;;17.67;44.91;101193.67;108112;1287;22000;-65
2023/10/04 00:51:37;;;;;;;18.30;6.60;;;;;;;17.64;44.85;101195.89;108134;1284;22268;-65
2023/10/04 00:54:07;;;;;;;17.50;7.10;;;;;;;17.61;44.96;101193.30;107845;1287;21992;-65
2023/10/04 00:56:36;;;;;;;13.90;6.80;;;;;;;17.61;44.72;101192.79;108173;1288;22451;-58
2023/10/04 00:59:04;;;;;;;16.80;8.00;;;;;;;17.62;44.63;101187.95;107865;1288;21982;-67
2023/10/04 01:01:33;;;;;;;17.10;7.60;;;;;;;17.63;44.63;101186.16;108114;1288;21993;-58
2023/10/04 01:04:00;;;;;;;19.00;7.80;;;;;;;17.63;44.76;101187.40;108102;1280;21999;-67
2023/10/04 01:06:26;;;;;;;16.10;6.60;;;;;;;17.59;44.87;101183.96;108129;1286;21992;-58
2023/10/04 01:08:53;;;;;;;17.40;7.00;;;;;;;17.53;44.75;101180.73;108127;1283;21988;-67
2023/10/04 01:11:20;;;;;;;16.00;7.00;;;;;;;17.50;44.76;101180.30;108119;1288;22029;-57
2023/10/04 01:13:47;;;;;;;16.80;6.80;;;;;;;17.48;44.86;101176.11;108103;1281;21989;-57
2023/10/04 01:16:15;;;;;;;15.50;6.50;;;;;;;17.46;45.13;101172.96;108100;1287;21986;-57
2023/10/04 01:18:41;;;;;;;18.40;7.50;;;;;;;17.41;45.16;101170.98;107866;1280;22002;-67
2023/10/04 01:21:06;;;;;;;15.40;7.10;;;;;;;17.36;45.30;101168.63;108059;1280;22028;-57
2023/10/04 01:23:33;;;;;;;15.10;6.60;;;;;;;17.35;45.48;101166.73;108116;1287;21975;-66
2023/10/04 01:26:00;;;;;;;14.10;6.40;;;;;;;17.35;45.61;101161.58;108145;1282;22199;-57
2023/10/04 01:28:30;;;;;;;15.50;6.10;;;;;;;17.37;45.67;101156.72;108132;1283;22100;-66
2023/10/04 01:30:59;;;;;;;13.50;6.20;;;;;;;17.40;45.92;101155.39;108089;1287;21993;-58
2023/10/04 01:33:25;;;;;;;14.60;6.70;;;;;;;17.45;46.00;101152.95;108162;1277;23042;-67
2023/10/04 01:35:53;;;;;;;17.00;6.60;;;;;;;17.49;45.97;101151.42;108110;1283;21985;-57
2023/10/04 01:38:29;;;;;;;15.40;6.70;;;;;;;17.51;46.02;101147.80;108126;1283;22033;-58
2023/10/04 01:40:55;;;;;;;13.80;6.10;;;;;;;17.55;46.26;101146.64;108126;1283;21995;-58
2023/10/04 01:43:24;;;;;;;16.70;6.60;;;;;;;17.56;46.16;101146.25;108095;1281;22001;-66
2023/10/04 01:45:50;;;;;;;14.70;6.50;;;;;;;17.58;46.30;101143.36;108119;1280;21957;-58
2023/10/04 01:48:20;;;;;;;16.90;6.90;;;;;;;17.58;46.39;101147.45;108085;1288;21989;-58
2023/10/04 01:50:52;;;;;;;15.30;6.20;;;;;;;17.60;46.62;101143.46;108116;1287;22025;-67
2023/10/04 01:53:22;;;;;;;20.20;6.60;;;;;;;17.63;46.59;101142.16;108142;1285;23060;-67
2023/10/04 01:55:48;;;;;;;15.60;6.20;;;;;;;17.64;46.47;101138.38;108059;1287;21983;-67
2023/10/04 01:58:15;;;;;;;17.40;6.70;;;;;;;17.65;46.54;101134.97;107844;1283;22048;-58
2023/10/04 02:00:42;;;;;;;14.70;6.40;;;;;;;17.66;46.62;101136.73;108134;1283;21989;-56
2023/10/04 02:03:10;;;;;;;16.00;6.60;;;;;;;17.65;46.58;101133.93;108086;1280;21990;-66
2023/10/04 02:05:40;;;;;;;16.10;6.80;;;;;;;17.62;46.73;101129.39;108141;1277;21991;-66
2023/10/04 02:08:10;;;;;;;16.20;6.60;;;;;;;17.58;46.71;101127.73;108095;1286;22046;-57
2023/10/04 02:10:36;;;;;;;18.90;6.30;;;;;;;17.56;46.76;101128.85;108112;1288;22225;-57
2023/10/04 02:13:06;;;;;;;15.00;6.20;;;;;;;17.55;46.75;101130.13;107406;1276;1002459;-67
2023/10/04 02:15:34;;;;;;;;;;;;;;;17.53;46.66;101131.95;108134;1287;23592;-67
2023/10/04 02:17:59;;;;;;;11.90;5.80;;;;;;;17.54;46.68;101131.95;108162;1284;24410;-58
2023/10/04 02:20:27;;;;;;;17.30;6.50;;;;;;;17.53;46.53;101134.77;108084;1288;21971;-58
2023/10/04 02:22:54;;;;;;;16.60;7.10;;;;;;;17.55;46.53;101132.62;108078;1283;23457;-66
2023/10/04 02:25:20;;;;;;;15.10;6.20;;;;;;;17.53;46.46;101130.17;108088;1283;21994;-57
2023/10/04 02:27:48;;;;;;;17.00;7.00;;;;;;;17.50;46.38;101129.02;108085;1287;21995;-58
2023/10/04 02:30:15;;;;;;;19.10;7.60;;;;;;;17.47;46.36;101128.94;108117;1280;21989;-67
2023/10/04 02:32:44;;;;;;;15.70;6.20;;;;;;;17.45;46.42;101129.02;108058;1280;22212;-67
2023/10/04 02:35:11;;;;;;;15.20;6.00;;;;;;;17.42;46.45;101129.10;108123;1286;21991;-57
2023/10/04 02:37:38;;;;;;;13.00;6.40;;;;;;;17.40;46.35;101127.04;108098;1283;21994;-66
2023/10/04 02:40:14;;;;;;;15.60;7.00;;;;;;;17.37;46.54;101130.45;108091;1283;22162;-67
2023/10/04 02:42:42;;;;;;;16.70;6.90;;;;;;;17.34;46.51;101131.45;108130;1288;21999;-66
2023/10/04 02:45:11;;;;;;;16.30;7.10;;;;;;;17.30;46.57;101129.60;108120;1288;21987;-66
2023/10/04 02:47:37;;;;;;;17.20;6.50;;;;;;;17.28;46.96;101131.59;108098;1277;21994;-57
2023/10/04 02:50:03;;;;;;;14.60;6.00;;;;;;;17.26;47.04;101130.78;108099;1283;21990;-66
2023/10/04 02:52:30;;;;;;;16.00;6.70;;;;;;;17.25;47.05;101132.91;108139;1287;21991;-57
2023/10/04 02:54:56;;;;;;;15.60;6.50;;;;;;;17.27;47.38;101130.73;108069;1288;22008;-66
2023/10/04 02:57:22;;;;;;;18.30;6.60;;;;;;;17.29;47.42;101128.92;108051;1276;23724;-67
2023/10/04 02:59:47;;;;;;;14.90;6.70;;;;;;;17.32;47.34;101130.27;108077;1283;23615;-56
2023/10/04 03:02:14;;;;;;;19.00;6.70;;;;;;;17.33;47.27;101127.73;108083;1280;21999;-56
2023/10/04 03:04:41;;;;;;;16.40;6.30;;;;;;;17.34;47.25;101125.75;108109;1288;21990;-67
2023/10/04 03:07:09;;;;;;;26.80;6.50;;;;;;;17.35;47.27;101127.51;108087;1283;22449;-57
2023/10/04 03:09:37;;;;;;;16.80;6.50;;;;;;;17.36;47.32;101129.98;108137;1283;22084;-67
2023/10/04 03:12:03;;;;;;;15.70;6.60;;;;;;;17.35;47.39;101127.70;108138;1283;21986;-67
2023/10/04 03:14:30;;;;;;;19.90;6.50;;;;;;;17.35;47.36;101128.41;108140;1286;23053;-58
2023/10/04 03:16:58;;;;;;;15.50;6.90;;;;;;;17.35;47.34;101126.64;108138;1283;21998;-67
2023/10/04 03:19:25;;;;;;;14.90;6.40;;;;;;;17.34;47.27;101126.48;108109;1287;21994;-57
2023/10/04 03:21:51;;;;;;;15.50;7.00;;;;;;;17.33;47.26;101124.20;108199;1287;22000;-57
2023/10/04 03:24:18;;;;;;;17.50;7.20;;;;;;;17.32;47.31;101122.63;108114;1283;22024;-68
2023/10/04 03:26:44;;;;;;;14.50;6.80;;;;;;;17.32;47.22;101121.57;108121;1280;21990;-58
2023/10/04 03:29:11;;;;;;;16.80;6.70;;;;;;;17.32;47.30;101119.98;108126;1288;21990;-57
2023/10/04 03:31:38;;;;;;;15.70;7.20;;;;;;;17.29;47.18;101118.27;108118;1283;21985;-68
2023/10/04 03:34:05;;;;;;;22.40;7.10;;;;;;;17.27;47.01;101112.33;108160;1277;21999;-67
2023/10/04 03:36:34;;;;;;;20.90;7.70;;;;;;;17.24;47.17;101110.62;108137;1288;21990;-58
2023/10/04 03:39:00;;;;;;;17.10;6.50;;;;;;;17.20;47.26;101113.23;108163;1287;21991;-69
2023/10/04 03:41:26;;;;;;;20.00;7.60;;;;;;;17.18;47.47;101108.31;108162;1283;21989;-66
2023/10/04 03:43:54;;;;;;;19.00;8.00;;;;;;;17.18;47.84;101108.66;108129;1283;21987;-67
2023/10/04 03:46:20;;;;;;;17.90;7.50;;;;;;;17.18;48.25;101107.05;108165;1283;21992;-57
2023/10/04 03:48:46;;;;;;;16.40;6.60;;;;;;;17.18;48.41;101108.33;108142;1280;22000;-58
2023/10/04 03:51:13;;;;;;;19.70;7.70;;;;;;;17.20;48.47;101112.52;108176;1288;22044;-57
2023/10/04 03:53:41;;;;;;;21.00;7.30;;;;;;;17.20;48.67;101111.98;108127;1280;22331;-68
2023/10/04 03:56:10;;;;;;;19.10;7.70;;;;;;;17.21;48.77;101109.46;108126;1288;21991;-56
2023/10/04 03:58:36;;;;;;;18.00;6.70;;;;;;;17.23;48.77;101111.36;108128;1283;22048;-57
2023/10/04 04:01:03;;;;;;;20.50;7.50;;;;;;;17.25;48.87;101113.61;108147;1283;21986;-57
2023/10/04 04:03:32;;;;;;;17.30;7.10;;;;;;;17.26;48.95;101114.46;107932;1287;21989;-58
2023/10/04 04:05:58;;;;;;;20.50;6.90;;;;;;;17.26;49.22;101112.86;108093;1288;24005;-69
2023/10/04 04:08:25;;;;;;;23.80;8.70;;;;;;;17.27;49.41;101114.59;107835;1279;22017;-69
2023/10/04 04:10:51;;;;;;;23.50;7.60;;;;;;;17.30;49.53;101112.73;108116;1284;21990;-70
2023/10/04 04:13:18;;;;;;;18.10;7.10;;;;;;;17.34;49.47;101113.34;108096;1283;22043;-57
2023/10/04 04:15:44;;;;;;;19.80;6.30;;;;;;;17.40;49.78;101114.63;108123;1283;22011;-65
2023/10/04 04:18:43;;;;;;;18.90;7.30;;;;;;;17.44;49.94;101113.97;108152;1280;21991;-70
2023/10/04 04:21:03;;;;;;;21.50;6.90;;;;;;;17.48;49.90;101114.70;108076;1288;21993;-70
2023/10/04 04:23:31;;;;;;;16.90;6.50;;;;;;;17.54;50.00;101116.88;108139;1286;21991;-69
2023/10/04 04:25:59;;;;;;;19.30;6.90;;;;;;;17.55;50.22;101116.63;108107;1288;21994;-58
2023/10/04 04:28:25;;;;;;;19.00;7.60;;;;;;;17.57;50.16;101121.56;108124;1284;21992;-58
2023/10/04 04:30:51;;;;;;;19.20;6.90;;;;;;;17.60;50.26;101119.87;108104;1283;22043;-58
2023/10/04 04:33:18;;;;;;;21.90;7.80;;;;;;;17.63;50.34;101122.09;108100;1288;21995;-69
2023/10/04 04:38:16;;;;;;;16.40;6.80;;;;;;;17.71;50.72;101128.59;108146;1287;22088;-57
2023/10/04 04:40:49;;;;;;;16.90;7.00;;;;;;;17.75;50.74;101132.20;108114;1288;21986;-57
2023/10/04 04:45:50;;;;;;;17.40;7.40;;;;;;;17.83;50.96;101131.08;108172;1283;21998;-58
2023/10/04 04:48:25;;;;;;;21.30;7.60;;;;;;;17.87;50.84;101132.91;108130;1280;22060;-57
2023/10/04 04:50:55;;;;;;;16.40;7.10;;;;;;;17.92;50.91;101137.52;108159;1279;22079;-69
2023/10/04 04:53:27;;;;;;;19.80;8.50;;;;;;;17.98;50.94;101137.38;108105;1279;22014;-69
2023/10/04 04:55:53;;;;;;;20.00;8.80;;;;;;;18.04;51.18;101137.21;108158;1283;21987;-68
2023/10/04 04:58:22;;;;;;;22.70;9.70;;;;;;;18.10;51.21;101138.08;108099;1280;21995;-67
2023/10/04 05:00:55;;;;;;;20.50;9.60;;;;;;;18.17;51.28;101139.27;108142;1288;21993;-68
2023/10/04 05:03:21;;;;;;;19.60;8.40;;;;;;;18.24;51.37;101139.06;108154;1277;21989;-67
2023/10/04 05:05:49;;;;;;;20.70;8.40;;;;;;;18.31;51.35;101140.44;108105;1288;21995;-67
2023/10/04 05:08:18;;;;;;;21.30;9.40;;;;;;;18.38;51.58;101142.17;108140;1288;21987;-57
2023/10/04 05:10:49;;;;;;;18.90;8.60;;;;;;;18.44;51.40;101139.14;108121;1283;22281;-66
2023/10/04 05:13:16;;;;;;;16.20;8.00;;;;;;;18.53;51.47;101142.03;108159;1287;21999;-67
2023/10/04 05:15:43;;;;;;;15.80;7.10;;;;;;;18.62;51.71;101138.88;108105;1288;22024;-66
2023/10/04 05:18:15;;;;;;;17.00;7.60;;;;;;;18.70;51.88;101137.89;108133;1286;22027;-67
2023/10/04 05:20:42;;;;;;;17.00;7.10;;;;;;;18.80;51.92;101137.75;108165;1277;21989;-66
2023/10/04 05:23:09;;;;;;;15.90;7.50;;;;;;;18.89;52.45;101136.74;108190;1288;21979;-65
2023/10/04 05:25:36;;;;;;;16.40;7.20;;;;;;;18.99;52.07;101136.59;108150;1277;21998;-58
2023/10/04 05:28:14;;;;;;;16.50;7.30;;;;;;;19.09;52.36;101134.45;108149;1277;21987;-67
2023/10/04 05:30:42;;;;;;;19.80;7.50;;;;;;;19.21;52.44;101136.16;108140;1285;21992;-57
2023/10/04 05:33:08;;;;;;;15.90;7.60;;;;;;;19.33;52.33;101139.29;108172;1284;22024;-57
2023/10/04 05:35:37;;;;;;;20.00;7.30;;;;;;;19.47;52.66;101144.12;108146;1283;21987;-67
2023/10/04 05:38:04;;;;;;;18.10;7.70;;;;;;;19.61;53.06;101147.13;108112;1288;22047;-58
2023/10/04 05:40:38;;;;;;;14.30;7.20;;;;;;;19.77;53.13;101143.67;108149;1287;21986;-67
2023/10/04 05:43:04;;;;;;;17.00;6.50;;;;;;;19.92;52.94;101144.55;108183;1286;21988;-57
2023/10/04 05:45:30;;;;;;;22.90;7.40;;;;;;;20.07;53.10;101146.45;108098;1288;22042;-66
2023/10/04 05:47:57;;;;;;;15.10;7.80;;;;;;;20.23;53.31;101144.25;108164;1280;21990;-63
2023/10/04 05:50:23;;;;;;;16.70;7.10;;;;;;;20.37;53.04;101141.16;108154;1288;23647;-66
2023/10/04 05:52:49;;;;;;;16.30;7.20;;;;;;;20.51;52.61;101140.23;108135;1284;21994;-57
2023/10/04 05:55:19;;;;;;;16.80;7.80;;;;;;;20.66;52.70;101141.58;108124;1283;21999;-65
2023/10/04 05:57:50;;;;;;;15.40;6.80;;;;;;;20.80;52.60;101140.45;108146;1288;21993;-57
2023/10/04 06:00:37;;;;;;;14.70;6.40;;;;;;;20.94;52.49;101138.64;108155;1283;21995;-58
2023/10/04 06:03:07;;;;;;;17.00;6.50;;;;;;;21.09;52.29;101139.39;108119;1287;22003;-58
2023/10/04 06:05:35;;;;;;;20.30;8.40;;;;;;;21.24;52.09;101142.13;108168;1283;22130;-57
2023/10/04 06:08:11;;;;;;;13.00;6.80;;;;;;;21.39;51.99;101144.30;108149;1288;21987;-66
2023/10/04 06:10:38;;;;;;;17.00;6.80;;;;;;;21.55;51.58;101146.10;108144;1284;22006;-58
2023/10/04 06:13:07;;;;;;;17.20;6.80;;;;;;;21.70;51.43;101145.97;108130;1288;22050;-66
2023/10/04 06:15:33;;;;;;;15.10;6.60;;;;;;;21.86;51.59;101145.94;108119;1283;21989;-69
2023/10/04 06:17:59;;;;;;;14.60;6.60;;;;;;;22.02;51.25;101147.31;108104;1279;21994;-65
2023/10/04 06:22:59;;;;;;;20.60;6.60;;;;;;;22.33;50.52;101150.97;108207;1288;21992;-66
2023/10/04 06:25:25;;;;;;;25.80;7.20;;;;;;;22.49;49.99;101152.54;108149;1286;21996;-66
2023/10/04 06:27:52;;;;;;;21.50;7.40;;;;;;;22.64;49.66;101150.73;108149;1283;21989;-59
2023/10/04 06:30:21;;;;;;;14.70;7.30;;;;;;;22.82;49.61;101148.20;108139;1283;21994;-58
2023/10/04 06:32:53;;;;;;;15.00;6.60;;;;;;;23.03;49.09;101149.30;108158;1288;22006;-64
2023/10/04 06:35:23;;;;;;;19.20;6.70;;;;;;;23.18;48.72;101148.84;108185;1279;21987;-65
2023/10/04 06:37:53;;;;;;;17.00;6.60;;;;;;;23.32;48.14;101148.16;108131;1286;21992;-57
2023/10/04 06:40:19;;;;;;;13.50;5.90;;;;;;;23.46;47.74;101148.46;108110;1279;21992;-64
2023/10/04 06:42:45;;;;;;;18.80;7.70;;;;;;;23.59;47.52;101144.92;108139;1288;21998;-63
2023/10/04 06:45:22;;;;;;;16.00;6.80;;;;;;;23.71;47.21;101144.78;108132;1283;21987;-65
2023/10/04 06:47:49;;;;;;;15.20;6.90;;;;;;;23.84;46.83;101141.88;108094;1276;21988;-63
2023/10/04 06:50:18;;;;;;;13.20;6.70;;;;;;;23.97;46.46;101144.05;108091;1283;21998;-57
2023/10/04 06:52:48;;;;;;;15.00;7.00;;;;;;;24.11;46.27;101142.96;108568;1285;21990;-64
2023/10/04 06:55:15;;;;;;;26.30;7.10;;;;;;;24.22;45.78;101146.25;108088;1283;21989;-64
2023/10/04 06:57:40;;;;;;;12.30;6.10;;;;;;;24.33;45.32;101144.69;108142;1286;22045;-64
2023/10/04 07:00:13;;;;;;;17.80;7.40;;;;;;;24.45;45.20;101144.55;108089;1284;21969;-65
2023/10/04 07:02:51;;;;;;;15.00;6.90;;;;;;;24.57;44.96;101143.16;108102;1288;21995;-65
2023/10/04 07:05:19;;;;;;;18.70;7.40;;;;;;;24.65;44.49;101143.77;108140;1288;23612;-58
2023/10/04 07:07:45;;;;;;;16.40;6.90;;;;;;;24.74;44.21;101141.42;108139;1280;22454;-65
2023/10/04 07:10:14;;;;;;;18.00;7.60;;;;;;;24.85;43.96;101143.50;108160;1288;22048;-59
2023/10/04 07:12:44;;;;;;;16.50;6.70;;;;;;;24.93;43.66;101143.75;108098;1284;21990;-57
2023/10/04 07:15:11;;;;;;;14.60;7.20;;;;;;;25.02;43.31;101142.66;108115;1280;21990;-58
2023/10/04 07:17:39;;;;;;;18.90;7.10;;;;;;;25.11;42.78;101140.68;108133;1288;21987;-58
2023/10/04 07:20:13;;;;;;;21.10;6.60;;;;;;;25.23;42.75;101142.27;108130;1288;21999;-65
2023/10/04 07:22:39;;;;;;;13.60;7.10;;;;;;;25.39;42.30;101136.63;108108;1285;22014;-65
2023/10/04 07:25:07;;;;;;;14.70;7.60;;;;;;;25.55;42.34;101138.16;108085;1287;21985;-67
2023/10/04 07:27:33;;;;;;;14.40;6.70;;;;;;;25.69;41.80;101140.84;108185;1286;23571;-58
2023/10/04 07:29:58;;;;;;;22.20;7.90;;;;;;;25.76;40.96;101139.90;108106;1283;21992;-58
2023/10/04 07:32:25;;;;;;;18.20;7.10;;;;;;;25.80;40.84;101142.52;108122;1288;22000;-57
2023/10/04 07:34:50;;;;;;;15.90;6.80;;;;;;;25.82;40.61;101140.38;108079;1280;22000;-57
2023/10/04 07:37:16;;;;;;;19.50;6.80;;;;;;;25.90;40.55;101136.64;108107;1288;21987;-56
2023/10/04 07:39:42;;;;;;;15.90;6.60;;;;;;;26.02;40.15;101136.94;108090;1288;21993;-57
2023/10/04 07:42:07;;;;;;;12.70;6.80;;;;;;;26.13;39.38;101138.41;108126;1287;21994;-65
2023/10/04 07:44:33;;;;;;;14.30;6.80;;;;;;;26.20;39.24;101142.85;108133;1288;22001;-57
2023/10/04 07:46:59;;;;;;;14.70;6.70;;;;;;;26.25;38.54;101134.94;108119;1283;21993;-57
2023/10/04 07:49:28;;;;;;;14.70;7.00;;;;;;;26.36;38.79;101135.27;108101;1287;21999;-64
2023/10/04 07:51:55;;;;;;;17.70;7.00;;;;;;;26.46;38.26;101132.13;108144;1288;21992;-65
2023/10/04 07:54:21;;;;;;;17.00;7.20;;;;;;;26.51;38.28;101132.08;108154;1284;21989;-58
2023/10/04 07:56:48;;;;;;;14.80;6.70;;;;;;;26.60;37.78;101130.41;108065;1288;22472;-65
2023/10/04 07:59:17;;;;;;;19.00;7.20;;;;;;;26.70;37.79;101134.45;108226;1285;21983;-59
2023/10/04 08:01:43;;;;;;;17.70;6.90;;;;;;;26.76;37.72;101133.63;108988;1283;23997;-58
2023/10/04 08:04:11;;;;;;;18.10;6.50;;;;;;;26.88;37.36;101129.98;108269;1287;23682;-66
2023/10/04 08:06:40;;;;;;;18.20;7.10;;;;;;;27.01;37.34;101127.66;108098;1288;21982;-58
2023/10/04 08:09:06;;;;;;;16.80;6.80;;;;;;;27.13;37.02;101128.98;108188;1288;21995;-58
2023/10/04 08:11:35;;;;;;;13.80;6.30;;;;;;;27.24;36.71;101124.61;108186;1288;21990;-58
2023/10/04 08:14:07;;;;;;;15.30;7.50;;;;;;;27.30;35.72;101121.66;108174;1283;21998;-57
2023/10/04 08:16:36;;;;;;;18.30;6.80;;;;;;;27.35;35.64;101116.47;108139;1288;21989;-58
2023/10/04 08:19:03;;;;;;;15.40;6.30;;;;;;;27.43;35.63;101114.60;108090;1285;21990;-57
2023/10/04 08:21:30;;;;;;;14.00;6.50;;;;;;;27.51;34.98;101113.00;108124;1288;22076;-67
2023/10/04 08:23:57;;;;;;;15.70;6.00;;;;;;;27.55;35.06;101106.55;108111;1288;21980;-58
2023/10/04 08:26:22;;;;;;;14.60;6.20;;;;;;;27.62;34.99;101109.86;108157;1288;22246;-58
2023/10/04 08:28:48;;;;;;;15.00;6.60;;;;;;;27.73;34.98;101105.66;108183;1288;21996;-58
2023/10/04 08:31:16;;;;;;;14.70;7.10;;;;;;;27.80;35.20;101100.83;107988;1288;21990;-58
2023/10/04 08:33:43;;;;;;;16.00;6.80;;;;;;;27.90;34.96;101098.77;108194;1288;21993;-58
2023/10/04 08:36:18;;;;;;;17.90;6.40;;;;;;;28.06;34.88;101088.42;108102;1288;21992;-68
2023/10/04 08:38:45;;;;;;;14.50;6.10;;;;;;;28.19;34.11;101090.16;107852;1288;21990;-57
2023/10/04 08:41:11;;;;;;;15.90;6.80;;;;;;;28.26;34.24;101084.63;108211;1288;22257;-67
2023/10/04 08:43:38;;;;;;;12.60;6.60;;;;;;;28.28;33.97;101085.89;108178;1288;21995;-57
2023/10/04 08:46:04;;;;;;;14.80;6.80;;;;;;;28.31;33.43;101087.27;108033;1288;21993;-68
2023/10/04 08:48:30;;;;;;;15.10;6.70;;;;;;;28.38;33.14;101086.08;108110;1288;23723;-57
2023/10/04 08:51:02;;;;;;;10.90;6.10;;;;;;;28.44;33.35;101085.61;107707;1288;21980;-59
2023/10/04 08:53:34;;;;;;;15.50;7.00;;;;;;;28.52;32.89;101082.30;108080;1288;21993;-58
2023/10/04 08:56:02;;;;;;;18.30;6.70;;;;;;;28.57;32.93;101078.48;108081;1288;21996;-67
2023/10/04 08:58:27;;;;;;;18.70;7.10;;;;;;;28.63;32.96;101071.30;108121;1288;21990;-66
2023/10/04 09:00:53;;;;;;;13.60;6.10;;;;;;;28.73;32.69;101064.61;108052;1288;21998;-57
2023/10/04 09:03:21;;;;;;;12.60;6.20;;;;;;;28.81;32.41;101058.41;108053;1288;21958;-67
2023/10/04 09:05:47;;;;;;;19.10;5.80;;;;;;;28.91;32.43;101047.48;108103;1288;21995;-57
2023/10/04 09:08:14;;;;;;;16.60;6.80;;;;;;;29.02;32.13;101051.15;108070;1288;22824;-58
2023/10/04 09:10:40;;;;;;;14.80;6.80;;;;;;;29.12;32.07;101048.90;108153;1288;21993;-67
2023/10/04 09:13:06;;;;;;;14.90;6.20;;;;;;;29.17;32.01;101046.83;107958;1288;21992;-58
2023/10/04 09:15:31;;;;;;;14.80;6.40;;;;;;;29.22;32.07;101042.66;108090;1288;21982;-67
2023/10/04 09:17:57;;;;;;;14.10;6.50;;;;;;;29.25;31.75;101039.91;108057;1288;21990;-59
2023/10/04 09:20:27;;;;;;;15.10;6.90;;;;;;;29.30;31.62;101038.97;108056;1287;22008;-58
2023/10/04 09:22:54;;;;;;;14.90;6.50;;;;;;;29.38;31.71;101033.48;108133;1288;22030;-66
2023/10/04 09:25:19;;;;;;;15.80;6.60;;;;;;;29.48;31.52;101025.45;108143;1288;21993;-59
2023/10/04 09:27:57;;;;;;;13.40;6.00;;;;;;;29.52;31.34;101023.30;108135;1288;21994;-59
2023/10/04 09:30:26;;;;;;;12.70;6.00;;;;;;;29.55;31.16;101029.23;108132;1288;22013;-61
2023/10/04 09:32:52;;;;;;;15.50;6.10;;;;;;;29.61;30.86;101026.86;108190;1288;22460;-66
2023/10/04 09:35:18;;;;;;;18.60;6.80;;;;;;;29.65;30.62;101022.89;108143;1288;22015;-57
2023/10/04 09:37:46;;;;;;;13.30;6.30;;;;;;;29.70;30.18;101020.57;108138;1288;21998;-57
2023/10/04 09:40:12;;;;;;;19.10;7.00;;;;;;;29.73;30.22;101023.38;108163;1288;21999;-58
2023/10/04 09:42:55;;;;;;;13.30;6.40;;;;;;;29.80;29.92;101029.05;108169;1287;21992;-59
2023/10/04 09:45:24;;;;;;;17.30;6.70;;;;;;;29.87;29.85;101030.17;108125;1288;22001;-67
2023/10/04 09:47:51;;;;;;;13.70;6.00;;;;;;;29.98;30.03;101034.48;108119;1288;22469;-59
2023/10/04 09:50:24;;;;;;;15.40;6.40;;;;;;;30.14;29.94;101030.77;108239;1288;21990;-58
2023/10/04 09:52:50;;;;;;;17.60;6.20;;;;;;;30.19;29.10;101029.50;108171;1288;23647;-58
2023/10/04 09:55:16;;;;;;;16.30;6.90;;;;;;;30.18;28.93;101028.64;108103;1288;22144;-68
2023/10/04 09:57:43;;;;;;;12.60;5.80;;;;;;;30.23;28.95;101023.75;108039;1288;23724;-57
2023/10/04 10:00:17;;;;;;;12.30;5.90;;;;;;;30.25;28.57;101018.16;108127;1288;22187;-68
2023/10/04 10:02:48;;;;;;;14.20;5.80;;;;;;;30.29;29.07;101010.58;107802;1285;22961;-59
2023/10/04 10:05:19;;;;;;;12.20;5.20;;;;;;;30.32;29.16;101002.85;108178;1288;21995;-59
2023/10/04 10:07:45;;;;;;;12.20;5.80;;;;;;;30.39;28.93;100999.22;108127;1288;23692;-59
2023/10/04 10:10:12;;;;;;;13.50;6.00;;;;;;;30.50;28.83;100997.00;107750;1288;23612;-58
2023/10/04 10:12:40;;;;;;;18.50;6.80;;;;;;;30.58;28.87;100989.61;108104;1288;22473;-68
2023/10/04 10:15:07;;;;;;;15.60;6.30;;;;;;;30.62;28.48;100989.29;107868;1288;21990;-68
2023/10/04 10:17:34;;;;;;;15.00;6.80;;;;;;;30.61;28.08;100991.71;108142;1288;21994;-60
2023/10/04 10:20:00;;;;;;;15.60;6.40;;;;;;;30.57;27.64;100987.54;108132;1288;22033;-69
2023/10/04 10:22:26;;;;;;;24.70;6.90;;;;;;;30.52;28.02;100991.74;108123;1288;21995;-59
2023/10/04 10:24:57;;;;;;;14.10;6.40;;;;;;;30.58;28.55;100987.41;108185;1288;21980;-59
2023/10/04 10:27:24;;;;;;;15.20;6.30;;;;;;;30.72;28.23;100986.41;108135;1287;22033;-69
2023/10/04 10:29:51;;;;;;;17.50;6.40;;;;;;;30.82;28.52;100985.01;107968;1288;21999;-68
2023/10/04 10:32:21;;;;;;;29.30;7.60;;;;;;;30.91;28.30;100983.83;108148;1288;22015;-59
2023/10/04 10:34:51;;;;;;;13.70;6.10;;;;;;;30.99;28.10;100987.46;107908;1288;22059;-59
2023/10/04 10:37:19;;;;;;;10.80;6.10;;;;;;;31.05;27.67;100983.83;108176;1288;22047;-59
2023/10/04 10:39:55;;;;;;;13.80;6.10;;;;;;;31.12;27.92;100979.75;108142;1288;21994;-61
2023/10/04 10:42:21;;;;;;;36.30;7.60;;;;;;;31.21;27.77;100983.53;108156;1288;23060;-58
2023/10/04 10:44:48;;;;;;;15.10;6.00;;;;;;;31.27;27.74;100975.73;108109;1288;22009;-59
2023/10/04 10:47:25;;;;;;;12.40;5.80;;;;;;;31.35;27.83;100970.80;108188;1288;21989;-68
2023/10/04 10:49:52;;;;;;;13.40;6.00;;;;;;;31.40;27.80;100966.80;107734;1288;23629;-59
2023/10/04 10:52:29;;;;;;;35.80;8.00;;;;;;;31.44;27.82;100963.84;108107;1288;23057;-68
2023/10/04 10:54:56;;;;;;;15.90;6.00;;;;;;;31.50;27.63;100959.13;108135;1287;21997;-59
2023/10/04 10:57:27;;;;;;;19.70;6.30;;;;;;;31.55;27.38;100960.48;108105;1288;21998;-59
2023/10/04 10:59:54;;;;;;;13.70;6.20;;;;;;;31.63;27.42;100959.58;108142;1288;22966;-59
2023/10/04 11:02:20;;;;;;;13.80;5.90;;;;;;;31.73;27.48;100963.42;108133;1288;21978;-68
2023/10/04 11:04:46;;;;;;;34.70;8.20;;;;;;;31.83;27.31;100962.14;108135;1288;22175;-64
2023/10/04 11:07:11;;;;;;;12.60;6.00;;;;;;;31.86;27.08;100962.38;108107;1288;22043;-67
2023/10/04 11:09:39;;;;;;;12.50;6.50;;;;;;;31.84;26.77;100956.42;108123;1288;22005;-67
2023/10/04 11:12:09;;;;;;;15.00;6.00;;;;;;;31.84;27.09;100950.02;107854;1288;21997;-66
2023/10/04 11:14:36;;;;;;;14.20;6.80;;;;;;;31.91;26.83;100953.79;108137;1288;21993;-59
2023/10/04 11:17:03;;;;;;;13.40;6.30;;;;;;;32.04;27.06;100956.02;108134;1288;21993;-67
2023/10/04 11:19:31;;;;;;;18.30;6.80;;;;;;;32.09;26.49;100954.05;107825;1288;23619;-59